sensor_id;sensor_type;location;lat;lon;timestamp;pressure;altitude;pressure_sealevel;temperature
20103;BMP180;10210;52.284;9.892;2023-02-28T00:00:32;102045.00;;;7.60
20103;BMP180;10210;52.284;9.892;2023-02-28T00:02:57;102042.00;;;7.60
20103;BMP180;10210;52.284;9.892;2023-02-28T00:05:25;102039.00;;;7.60
20103;BMP180;10210;52.284;9.892;2023-02-28T00:07:51;102038.00;;;7.60
20103;BMP180;10210;52.284;9.892;2023-02-28T00:10:25;102042.00;;;7.60
20103;BMP180;10210;52.284;9.892;2023-02-28T00:12:53;102040.00;;;7.60
20103;BMP180;10210;52.284;9.892;2023-02-28T00:15:20;102035.00;;;7.60
20103;BMP180;10210;52.284;9.892;2023-02-28T00:17:46;102038.00;;;7.60
20103;BMP180;10210;52.284;9.892;2023-02-28T00:20:13;102042.00;;;7.60
20103;BMP180;10210;52.284;9.892;2023-02-28T00:22:45;102038.00;;;7.50
20103;BMP180;10210;52.284;9.892;2023-02-28T00:25:14;102048.00;;;7.50
20103;BMP180;10210;52.284;9.892;2023-02-28T00:27:40;102048.00;;;7.50
20103;BMP180;10210;52.284;9.892;2023-02-28T00:30:09;102044.00;;;7.40
20103;BMP180;10210;52.284;9.892;2023-02-28T00:32:35;102042.00;;;7.30
20103;BMP180;10210;52.284;9.892;2023-02-28T00:35:02;102032.00;;;7.30
20103;BMP180;10210;52.284;9.892;2023-02-28T00:37:28;102040.00;;;7.20
20103;BMP180;10210;52.284;9.892;2023-02-28T00:39:54;102032.00;;;7.10
20103;BMP180;10210;52.284;9.892;2023-02-28T00:42:20;102028.00;;;7.10
20103;BMP180;10210;52.284;9.892;2023-02-28T00:44:45;102030.00;;;7.00
20103;BMP180;10210;52.284;9.892;2023-02-28T00:47:11;102032.00;;;7.00
20103;BMP180;10210;52.284;9.892;2023-02-28T00:49:37;102030.00;;;7.00
20103;BMP180;10210;52.284;9.892;2023-02-28T00:52:02;102032.00;;;7.00
20103;BMP180;10210;52.284;9.892;2023-02-28T00:54:28;102043.00;;;7.00
20103;BMP180;10210;52.284;9.892;2023-02-28T00:56:54;102046.00;;;7.00
20103;BMP180;10210;52.284;9.892;2023-02-28T00:59:20;102042.00;;;7.00
20103;BMP180;10210;52.284;9.892;2023-02-28T01:01:46;102039.00;;;6.90
20103;BMP180;10210;52.284;9.892;2023-02-28T01:04:13;102038.00;;;6.90
20103;BMP180;10210;52.284;9.892;2023-02-28T01:06:39;102044.00;;;6.80
20103;BMP180;10210;52.284;9.892;2023-02-28T01:09:07;102046.00;;;6.80
20103;BMP180;10210;52.284;9.892;2023-02-28T01:11:34;102044.00;;;6.80
20103;BMP180;10210;52.284;9.892;2023-02-28T01:14:01;102040.00;;;6.70
20103;BMP180;10210;52.284;9.892;2023-02-28T01:16:27;102042.00;;;6.70
20103;BMP180;10210;52.284;9.892;2023-02-28T01:18:53;102032.00;;;6.60
20103;BMP180;10210;52.284;9.892;2023-02-28T01:21:21;102032.00;;;6.60
20103;BMP180;10210;52.284;9.892;2023-02-28T01:23:47;102043.00;;;6.60
20103;BMP180;10210;52.284;9.892;2023-02-28T01:26:23;102041.00;;;6.50
20103;BMP180;10210;52.284;9.892;2023-02-28T01:28:50;102036.00;;;6.50
20103;BMP180;10210;52.284;9.892;2023-02-28T01:31:18;102030.00;;;6.50
20103;BMP180;10210;52.284;9.892;2023-02-28T01:33:44;102043.00;;;6.50
20103;BMP180;10210;52.284;9.892;2023-02-28T01:36:21;102039.00;;;6.50
20103;BMP180;10210;52.284;9.892;2023-02-28T01:38:48;102029.00;;;6.40
20103;BMP180;10210;52.284;9.892;2023-02-28T01:41:24;102035.00;;;6.40
20103;BMP180;10210;52.284;9.892;2023-02-28T01:46:16;102030.00;;;6.40
20103;BMP180;10210;52.284;9.892;2023-02-28T01:49:22;102030.00;;;6.30
20103;BMP180;10210;52.284;9.892;2023-02-28T01:51:52;102023.00;;;6.30
20103;BMP180;10210;52.284;9.892;2023-02-28T01:54:30;102015.00;;;6.30
20103;BMP180;10210;52.284;9.892;2023-02-28T01:57:21;102014.00;;;6.30
20103;BMP180;10210;52.284;9.892;2023-02-28T01:59:57;102023.00;;;6.20
20103;BMP180;10210;52.284;9.892;2023-02-28T02:02:26;102029.00;;;6.20
20103;BMP180;10210;52.284;9.892;2023-02-28T02:05:22;102028.00;;;6.20
20103;BMP180;10210;52.284;9.892;2023-02-28T02:07:54;102018.00;;;6.20
20103;BMP180;10210;52.284;9.892;2023-02-28T02:25:21;102011.00;;;5.90
20103;BMP180;10210;52.284;9.892;2023-02-28T02:28:31;102007.00;;;5.90
20103;BMP180;10210;52.284;9.892;2023-02-28T02:37:07;102002.00;;;5.90
20103;BMP180;10210;52.284;9.892;2023-02-28T02:40:16;101996.00;;;5.80
20103;BMP180;10210;52.284;9.892;2023-02-28T02:43:16;101994.00;;;5.80
20103;BMP180;10210;52.284;9.892;2023-02-28T02:45:52;102001.00;;;5.80
20103;BMP180;10210;52.284;9.892;2023-02-28T02:48:25;102004.00;;;5.80
20103;BMP180;10210;52.284;9.892;2023-02-28T02:50:57;101996.00;;;5.80
20103;BMP180;10210;52.284;9.892;2023-02-28T02:53:33;102010.00;;;5.80
20103;BMP180;10210;52.284;9.892;2023-02-28T02:56:02;101994.00;;;5.80
20103;BMP180;10210;52.284;9.892;2023-02-28T02:58:35;102003.00;;;5.80
20103;BMP180;10210;52.284;9.892;2023-02-28T03:01:11;102008.00;;;5.70
20103;BMP180;10210;52.284;9.892;2023-02-28T03:03:37;102001.00;;;5.70
20103;BMP180;10210;52.284;9.892;2023-02-28T03:06:04;102000.00;;;5.70
20103;BMP180;10210;52.284;9.892;2023-02-28T03:08:36;102000.00;;;5.70
20103;BMP180;10210;52.284;9.892;2023-02-28T03:11:11;102007.00;;;5.70
20103;BMP180;10210;52.284;9.892;2023-02-28T03:20:04;102005.00;;;5.50
20103;BMP180;10210;52.284;9.892;2023-02-28T03:22:50;102008.00;;;5.50
20103;BMP180;10210;52.284;9.892;2023-02-28T03:25:36;102010.00;;;5.40
20103;BMP180;10210;52.284;9.892;2023-02-28T03:28:11;102006.00;;;5.40
20103;BMP180;10210;52.284;9.892;2023-02-28T03:30:50;101996.00;;;5.30
20103;BMP180;10210;52.284;9.892;2023-02-28T03:36:04;102008.00;;;5.30
20103;BMP180;10210;52.284;9.892;2023-02-28T03:38:38;102000.00;;;5.30
20103;BMP180;10210;52.284;9.892;2023-02-28T03:41:27;102004.00;;;5.30
20103;BMP180;10210;52.284;9.892;2023-02-28T03:44:04;102001.00;;;5.30
20103;BMP180;10210;52.284;9.892;2023-02-28T03:46:38;102006.00;;;5.20
20103;BMP180;10210;52.284;9.892;2023-02-28T03:49:23;101991.00;;;5.20
20103;BMP180;10210;52.284;9.892;2023-02-28T03:51:52;101992.00;;;5.20
20103;BMP180;10210;52.284;9.892;2023-02-28T03:54:31;101993.00;;;5.20
20103;BMP180;10210;52.284;9.892;2023-02-28T03:57:11;101997.00;;;5.20
20103;BMP180;10210;52.284;9.892;2023-02-28T04:00:05;102001.00;;;5.10
20103;BMP180;10210;52.284;9.892;2023-02-28T04:02:32;101991.00;;;5.10
20103;BMP180;10210;52.284;9.892;2023-02-28T04:05:00;101994.00;;;5.10
20103;BMP180;10210;52.284;9.892;2023-02-28T04:07:30;101998.00;;;5.10
20103;BMP180;10210;52.284;9.892;2023-02-28T04:09:56;102013.00;;;5.10
20103;BMP180;10210;52.284;9.892;2023-02-28T04:12:22;102013.00;;;5.00
20103;BMP180;10210;52.284;9.892;2023-02-28T04:14:49;102008.00;;;5.00
20103;BMP180;10210;52.284;9.892;2023-02-28T04:17:16;102011.00;;;5.00
20103;BMP180;10210;52.284;9.892;2023-02-28T04:19:43;102013.00;;;5.00
20103;BMP180;10210;52.284;9.892;2023-02-28T04:22:09;102013.00;;;5.00
20103;BMP180;10210;52.284;9.892;2023-02-28T04:24:36;102019.00;;;4.90
20103;BMP180;10210;52.284;9.892;2023-02-28T04:27:02;102013.00;;;4.80
20103;BMP180;10210;52.284;9.892;2023-02-28T04:29:31;102012.00;;;4.80
20103;BMP180;10210;52.284;9.892;2023-02-28T04:31:58;102005.00;;;4.80
20103;BMP180;10210;52.284;9.892;2023-02-28T04:34:27;102014.00;;;4.80
20103;BMP180;10210;52.284;9.892;2023-02-28T04:36:54;102009.00;;;4.80
20103;BMP180;10210;52.284;9.892;2023-02-28T04:39:22;102011.00;;;4.80
20103;BMP180;10210;52.284;9.892;2023-02-28T04:41:48;102013.00;;;4.80
20103;BMP180;10210;52.284;9.892;2023-02-28T04:44:15;102024.00;;;4.80
20103;BMP180;10210;52.284;9.892;2023-02-28T04:46:42;102024.00;;;4.90
20103;BMP180;10210;52.284;9.892;2023-02-28T04:49:11;102019.00;;;4.90
20103;BMP180;10210;52.284;9.892;2023-02-28T04:51:37;102029.00;;;4.90
20103;BMP180;10210;52.284;9.892;2023-02-28T04:54:03;102026.00;;;4.80
20103;BMP180;10210;52.284;9.892;2023-02-28T04:56:29;102012.00;;;4.80
20103;BMP180;10210;52.284;9.892;2023-02-28T04:58:54;102013.00;;;4.80
20103;BMP180;10210;52.284;9.892;2023-02-28T05:03:46;102034.00;;;4.80
20103;BMP180;10210;52.284;9.892;2023-02-28T05:06:13;102034.00;;;4.80
20103;BMP180;10210;52.284;9.892;2023-02-28T05:08:39;102033.00;;;4.80
20103;BMP180;10210;52.284;9.892;2023-02-28T05:13:45;102028.00;;;4.70
20103;BMP180;10210;52.284;9.892;2023-02-28T05:16:11;102033.00;;;4.70
20103;BMP180;10210;52.284;9.892;2023-02-28T05:18:37;102028.00;;;4.70
20103;BMP180;10210;52.284;9.892;2023-02-28T05:21:05;102037.00;;;4.80
20103;BMP180;10210;52.284;9.892;2023-02-28T05:23:31;102022.00;;;4.80
20103;BMP180;10210;52.284;9.892;2023-02-28T05:25:57;102025.00;;;4.80
20103;BMP180;10210;52.284;9.892;2023-02-28T05:28:23;102026.00;;;4.80
20103;BMP180;10210;52.284;9.892;2023-02-28T05:30:49;102033.00;;;4.80
20103;BMP180;10210;52.284;9.892;2023-02-28T05:33:14;102028.00;;;4.80
20103;BMP180;10210;52.284;9.892;2023-02-28T05:35:42;102034.00;;;4.70
20103;BMP180;10210;52.284;9.892;2023-02-28T05:38:08;102029.00;;;4.70
20103;BMP180;10210;52.284;9.892;2023-02-28T05:40:34;102025.00;;;4.70
20103;BMP180;10210;52.284;9.892;2023-02-28T05:43:00;102036.00;;;4.80
20103;BMP180;10210;52.284;9.892;2023-02-28T05:45:26;102036.00;;;4.80
20103;BMP180;10210;52.284;9.892;2023-02-28T05:47:55;102027.00;;;4.70
20103;BMP180;10210;52.284;9.892;2023-02-28T05:50:21;102041.00;;;4.70
20103;BMP180;10210;52.284;9.892;2023-02-28T05:52:53;102021.00;;;4.70
20103;BMP180;10210;52.284;9.892;2023-02-28T05:55:19;102039.00;;;4.70
20103;BMP180;10210;52.284;9.892;2023-02-28T05:57:44;102039.00;;;4.60
20103;BMP180;10210;52.284;9.892;2023-02-28T06:00:11;102037.00;;;4.60
20103;BMP180;10210;52.284;9.892;2023-02-28T06:02:39;102033.00;;;4.60
20103;BMP180;10210;52.284;9.892;2023-02-28T06:05:13;102043.00;;;4.50
20103;BMP180;10210;52.284;9.892;2023-02-28T06:07:39;102037.00;;;4.50
20103;BMP180;10210;52.284;9.892;2023-02-28T06:10:05;102036.00;;;4.50
20103;BMP180;10210;52.284;9.892;2023-02-28T06:12:31;102027.00;;;4.50
20103;BMP180;10210;52.284;9.892;2023-02-28T06:14:57;102031.00;;;4.40
20103;BMP180;10210;52.284;9.892;2023-02-28T06:17:22;102034.00;;;4.40
20103;BMP180;10210;52.284;9.892;2023-02-28T06:19:48;102036.00;;;4.40
20103;BMP180;10210;52.284;9.892;2023-02-28T06:22:14;102043.00;;;4.40
20103;BMP180;10210;52.284;9.892;2023-02-28T06:24:39;102044.00;;;4.40
20103;BMP180;10210;52.284;9.892;2023-02-28T06:27:05;102037.00;;;4.30
20103;BMP180;10210;52.284;9.892;2023-02-28T06:29:35;102038.00;;;4.30
20103;BMP180;10210;52.284;9.892;2023-02-28T06:32:01;102042.00;;;4.40
20103;BMP180;10210;52.284;9.892;2023-02-28T06:34:27;102052.00;;;4.40
20103;BMP180;10210;52.284;9.892;2023-02-28T06:36:53;102063.00;;;4.30
20103;BMP180;10210;52.284;9.892;2023-02-28T06:39:19;102064.00;;;4.20
20103;BMP180;10210;52.284;9.892;2023-02-28T06:41:44;102067.00;;;4.20
20103;BMP180;10210;52.284;9.892;2023-02-28T06:44:18;102059.00;;;4.20
20103;BMP180;10210;52.284;9.892;2023-02-28T06:46:45;102072.00;;;4.20
20103;BMP180;10210;52.284;9.892;2023-02-28T06:49:11;102082.00;;;4.10
20103;BMP180;10210;52.284;9.892;2023-02-28T06:51:40;102079.00;;;4.10
20103;BMP180;10210;52.284;9.892;2023-02-28T06:54:07;102087.00;;;4.10
20103;BMP180;10210;52.284;9.892;2023-02-28T06:56:36;102082.00;;;4.10
20103;BMP180;10210;52.284;9.892;2023-02-28T06:59:03;102087.00;;;4.10
20103;BMP180;10210;52.284;9.892;2023-02-28T07:01:30;102082.00;;;4.10
20103;BMP180;10210;52.284;9.892;2023-02-28T07:03:57;102070.00;;;4.20
20103;BMP180;10210;52.284;9.892;2023-02-28T07:06:24;102084.00;;;4.20
20103;BMP180;10210;52.284;9.892;2023-02-28T07:08:51;102082.00;;;4.20
20103;BMP180;10210;52.284;9.892;2023-02-28T07:11:20;102084.00;;;4.20
20103;BMP180;10210;52.284;9.892;2023-02-28T07:13:46;102085.00;;;4.30
20103;BMP180;10210;52.284;9.892;2023-02-28T07:16:13;102097.00;;;4.30
20103;BMP180;10210;52.284;9.892;2023-02-28T07:18:39;102097.00;;;4.20
20103;BMP180;10210;52.284;9.892;2023-02-28T07:21:08;102101.00;;;4.20
20103;BMP180;10210;52.284;9.892;2023-02-28T07:23:35;102092.00;;;4.20
20103;BMP180;10210;52.284;9.892;2023-02-28T07:26:04;102103.00;;;4.30
20103;BMP180;10210;52.284;9.892;2023-02-28T07:28:30;102098.00;;;4.30
20103;BMP180;10210;52.284;9.892;2023-02-28T07:30:56;102105.00;;;4.30
20103;BMP180;10210;52.284;9.892;2023-02-28T07:33:21;102113.00;;;4.40
20103;BMP180;10210;52.284;9.892;2023-02-28T07:35:47;102102.00;;;4.40
20103;BMP180;10210;52.284;9.892;2023-02-28T07:38:12;102102.00;;;4.40
20103;BMP180;10210;52.284;9.892;2023-02-28T07:40:39;102100.00;;;4.40
20103;BMP180;10210;52.284;9.892;2023-02-28T07:43:05;102098.00;;;4.50
20103;BMP180;10210;52.284;9.892;2023-02-28T07:45:31;102107.00;;;4.50
20103;BMP180;10210;52.284;9.892;2023-02-28T07:48:00;102105.00;;;4.50
20103;BMP180;10210;52.284;9.892;2023-02-28T07:50:26;102098.00;;;4.50
20103;BMP180;10210;52.284;9.892;2023-02-28T07:52:57;102106.00;;;4.50
20103;BMP180;10210;52.284;9.892;2023-02-28T07:55:23;102106.00;;;4.50
20103;BMP180;10210;52.284;9.892;2023-02-28T07:57:49;102109.00;;;4.60
20103;BMP180;10210;52.284;9.892;2023-02-28T08:00:15;102098.00;;;4.60
20103;BMP180;10210;52.284;9.892;2023-02-28T08:02:40;102091.00;;;4.60
20103;BMP180;10210;52.284;9.892;2023-02-28T08:05:07;102096.00;;;4.60
20103;BMP180;10210;52.284;9.892;2023-02-28T08:07:32;102101.00;;;4.70
20103;BMP180;10210;52.284;9.892;2023-02-28T08:09:59;102103.00;;;4.70
20103;BMP180;10210;52.284;9.892;2023-02-28T08:12:26;102100.00;;;4.70
20103;BMP180;10210;52.284;9.892;2023-02-28T08:14:51;102088.00;;;4.80
20103;BMP180;10210;52.284;9.892;2023-02-28T08:17:17;102096.00;;;5.10
20103;BMP180;10210;52.284;9.892;2023-02-28T08:19:46;102090.00;;;5.60
20103;BMP180;10210;52.284;9.892;2023-02-28T08:22:11;102106.00;;;5.90
20103;BMP180;10210;52.284;9.892;2023-02-28T08:24:37;102105.00;;;6.00
20103;BMP180;10210;52.284;9.892;2023-02-28T08:27:04;102103.00;;;6.00
20103;BMP180;10210;52.284;9.892;2023-02-28T08:29:29;102107.00;;;5.90
20103;BMP180;10210;52.284;9.892;2023-02-28T08:31:55;102106.00;;;5.80
20103;BMP180;10210;52.284;9.892;2023-02-28T08:34:22;102112.00;;;5.80
20103;BMP180;10210;52.284;9.892;2023-02-28T08:36:49;102111.00;;;5.70
20103;BMP180;10210;52.284;9.892;2023-02-28T08:39:15;102109.00;;;5.70
20103;BMP180;10210;52.284;9.892;2023-02-28T08:41:42;102114.00;;;5.70
20103;BMP180;10210;52.284;9.892;2023-02-28T08:44:07;102115.00;;;5.70
20103;BMP180;10210;52.284;9.892;2023-02-28T08:46:33;102117.00;;;5.80
20103;BMP180;10210;52.284;9.892;2023-02-28T08:48:59;102116.00;;;6.20
20103;BMP180;10210;52.284;9.892;2023-02-28T08:51:28;102115.00;;;6.70
20103;BMP180;10210;52.284;9.892;2023-02-28T08:53:57;102129.00;;;7.30
20103;BMP180;10210;52.284;9.892;2023-02-28T08:56:23;102120.00;;;7.90
20103;BMP180;10210;52.284;9.892;2023-02-28T08:58:50;102120.00;;;8.60
20103;BMP180;10210;52.284;9.892;2023-02-28T09:01:27;102127.00;;;9.20
20103;BMP180;10210;52.284;9.892;2023-02-28T09:03:54;102129.00;;;9.80
20103;BMP180;10210;52.284;9.892;2023-02-28T09:06:24;102127.00;;;10.40
20103;BMP180;10210;52.284;9.892;2023-02-28T09:08:51;102126.00;;;10.90
20103;BMP180;10210;52.284;9.892;2023-02-28T09:11:18;102128.00;;;11.30
20103;BMP180;10210;52.284;9.892;2023-02-28T09:13:45;102136.00;;;11.50
20103;BMP180;10210;52.284;9.892;2023-02-28T09:16:14;102125.00;;;11.70
20103;BMP180;10210;52.284;9.892;2023-02-28T09:18:42;102132.00;;;11.80
20103;BMP180;10210;52.284;9.892;2023-02-28T09:21:11;102125.00;;;11.90
20103;BMP180;10210;52.284;9.892;2023-02-28T09:23:44;102131.00;;;11.90
20103;BMP180;10210;52.284;9.892;2023-02-28T09:26:27;102131.00;;;12.00
20103;BMP180;10210;52.284;9.892;2023-02-28T09:28:54;102136.00;;;12.20
20103;BMP180;10210;52.284;9.892;2023-02-28T09:31:25;102134.00;;;12.30
20103;BMP180;10210;52.284;9.892;2023-02-28T09:33:54;102137.00;;;12.40
20103;BMP180;10210;52.284;9.892;2023-02-28T09:36:22;102137.00;;;12.60
20103;BMP180;10210;52.284;9.892;2023-02-28T09:38:49;102136.00;;;12.70
20103;BMP180;10210;52.284;9.892;2023-02-28T09:41:22;102127.00;;;12.80
20103;BMP180;10210;52.284;9.892;2023-02-28T09:43:55;102132.00;;;12.90
20103;BMP180;10210;52.284;9.892;2023-02-28T09:46:47;102122.00;;;12.90
20103;BMP180;10210;52.284;9.892;2023-02-28T09:49:21;102133.00;;;12.90
20103;BMP180;10210;52.284;9.892;2023-02-28T09:52:03;102136.00;;;12.90
20103;BMP180;10210;52.284;9.892;2023-02-28T09:54:32;102138.00;;;12.90
20103;BMP180;10210;52.284;9.892;2023-02-28T09:59:57;102137.00;;;12.60
20103;BMP180;10210;52.284;9.892;2023-02-28T10:02:47;102147.00;;;12.60
20103;BMP180;10210;52.284;9.892;2023-02-28T10:05:23;102136.00;;;12.60
20103;BMP180;10210;52.284;9.892;2023-02-28T10:10:49;102139.00;;;12.20
20103;BMP180;10210;52.284;9.892;2023-02-28T10:13:45;102138.00;;;12.00
20103;BMP180;10210;52.284;9.892;2023-02-28T10:16:25;102139.00;;;11.90
20103;BMP180;10210;52.284;9.892;2023-02-28T10:21:44;102135.00;;;11.60
20103;BMP180;10210;52.284;9.892;2023-02-28T10:24:33;102125.00;;;11.50
20103;BMP180;10210;52.284;9.892;2023-02-28T10:27:12;102121.00;;;11.30
20103;BMP180;10210;52.284;9.892;2023-02-28T10:29:43;102132.00;;;11.20
20103;BMP180;10210;52.284;9.892;2023-02-28T10:32:15;102127.00;;;11.10
20103;BMP180;10210;52.284;9.892;2023-02-28T10:34:42;102127.00;;;11.00
20103;BMP180;10210;52.284;9.892;2023-02-28T10:37:11;102135.00;;;10.80
20103;BMP180;10210;52.284;9.892;2023-02-28T10:39:44;102118.00;;;10.70
20103;BMP180;10210;52.284;9.892;2023-02-28T10:42:27;102128.00;;;10.40
20103;BMP180;10210;52.284;9.892;2023-02-28T10:45:14;102131.00;;;10.20
20103;BMP180;10210;52.284;9.892;2023-02-28T10:47:56;102127.00;;;9.90
20103;BMP180;10210;52.284;9.892;2023-02-28T10:50:51;102129.00;;;9.70
20103;BMP180;10210;52.284;9.892;2023-02-28T10:56:06;102127.00;;;9.40
20103;BMP180;10210;52.284;9.892;2023-02-28T10:58:48;102127.00;;;9.30
20103;BMP180;10210;52.284;9.892;2023-02-28T11:06:57;102111.00;;;9.10
20103;BMP180;10210;52.284;9.892;2023-02-28T11:09:35;102119.00;;;9.00
20103;BMP180;10210;52.284;9.892;2023-02-28T11:12:08;102111.00;;;9.00
20103;BMP180;10210;52.284;9.892;2023-02-28T11:14:51;102126.00;;;9.00
20103;BMP180;10210;52.284;9.892;2023-02-28T11:17:24;102113.00;;;9.00
20103;BMP180;10210;52.284;9.892;2023-02-28T11:20:04;102111.00;;;8.90
20103;BMP180;10210;52.284;9.892;2023-02-28T11:22:37;102117.00;;;9.00
20103;BMP180;10210;52.284;9.892;2023-02-28T11:25:21;102108.00;;;8.90
20103;BMP180;10210;52.284;9.892;2023-02-28T11:27:54;102106.00;;;9.00
20103;BMP180;10210;52.284;9.892;2023-02-28T11:30:38;102103.00;;;9.00
20103;BMP180;10210;52.284;9.892;2023-02-28T11:33:30;102099.00;;;9.10
20103;BMP180;10210;52.284;9.892;2023-02-28T11:36:03;102099.00;;;9.10
20103;BMP180;10210;52.284;9.892;2023-02-28T11:38:34;102091.00;;;9.20
20103;BMP180;10210;52.284;9.892;2023-02-28T11:44:28;102085.00;;;9.20
20103;BMP180;10210;52.284;9.892;2023-02-28T11:47:06;102084.00;;;9.30
20103;BMP180;10210;52.284;9.892;2023-02-28T11:53:02;102080.00;;;9.30
20103;BMP180;10210;52.284;9.892;2023-02-28T11:55:35;102072.00;;;9.40
20103;BMP180;10210;52.284;9.892;2023-02-28T11:58:26;102076.00;;;9.50
20103;BMP180;10210;52.284;9.892;2023-02-28T12:10:21;102076.00;;;9.80
20103;BMP180;10210;52.284;9.892;2023-02-28T12:13:21;102068.00;;;9.80
20103;BMP180;10210;52.284;9.892;2023-02-28T12:27:47;102065.00;;;10.50
20103;BMP180;10210;52.284;9.892;2023-02-28T12:30:21;102060.00;;;10.60
20103;BMP180;10210;52.284;9.892;2023-02-28T12:32:56;102062.00;;;10.80
20103;BMP180;10210;52.284;9.892;2023-02-28T12:35:37;102065.00;;;10.90
20103;BMP180;10210;52.284;9.892;2023-02-28T12:38:23;102054.00;;;11.10
20103;BMP180;10210;52.284;9.892;2023-02-28T12:41:12;102050.00;;;11.30
20103;BMP180;10210;52.284;9.892;2023-02-28T12:43:55;102049.00;;;11.40
20103;BMP180;10210;52.284;9.892;2023-02-28T12:46:35;102049.00;;;11.50
20103;BMP180;10210;52.284;9.892;2023-02-28T12:49:10;102039.00;;;11.50
20103;BMP180;10210;52.284;9.892;2023-02-28T12:51:39;102057.00;;;11.60
20103;BMP180;10210;52.284;9.892;2023-02-28T12:54:22;102046.00;;;11.50
20103;BMP180;10210;52.284;9.892;2023-02-28T12:57:11;102041.00;;;11.40
20103;BMP180;10210;52.284;9.892;2023-02-28T13:00:04;102034.00;;;11.30
20103;BMP180;10210;52.284;9.892;2023-02-28T13:03:04;102030.00;;;11.20
20103;BMP180;10210;52.284;9.892;2023-02-28T13:06:28;102034.00;;;11.00
20103;BMP180;10210;52.284;9.892;2023-02-28T13:09:12;102031.00;;;10.90
20103;BMP180;10210;52.284;9.892;2023-02-28T13:11:53;102024.00;;;10.80
20103;BMP180;10210;52.284;9.892;2023-02-28T13:19:38;102010.00;;;10.60
20103;BMP180;10210;52.284;9.892;2023-02-28T13:22:16;102022.00;;;10.60
20103;BMP180;10210;52.284;9.892;2023-02-28T13:24:53;102012.00;;;10.50
20103;BMP180;10210;52.284;9.892;2023-02-28T13:27:37;102002.00;;;10.50
20103;BMP180;10210;52.284;9.892;2023-02-28T13:34:04;102004.00;;;10.50
20103;BMP180;10210;52.284;9.892;2023-02-28T13:38:50;102002.00;;;10.60
20103;BMP180;10210;52.284;9.892;2023-02-28T13:44:23;101988.00;;;10.70
20103;BMP180;10210;52.284;9.892;2023-02-28T13:51:52;101986.00;;;11.00
20103;BMP180;10210;52.284;9.892;2023-02-28T13:57:44;101995.00;;;11.10
20103;BMP180;10210;52.284;9.892;2023-02-28T14:05:29;101995.00;;;11.30
20103;BMP180;10210;52.284;9.892;2023-02-28T14:07:59;101990.00;;;11.30
20103;BMP180;10210;52.284;9.892;2023-02-28T14:10:33;101989.00;;;11.30
20103;BMP180;10210;52.284;9.892;2023-02-28T14:15:41;101985.00;;;11.40
20103;BMP180;10210;52.284;9.892;2023-02-28T14:20:48;101984.00;;;11.50
20103;BMP180;10210;52.284;9.892;2023-02-28T14:23:50;101987.00;;;11.40
20103;BMP180;10210;52.284;9.892;2023-02-28T14:26:55;101990.00;;;11.50
20103;BMP180;10210;52.284;9.892;2023-02-28T14:29:37;101995.00;;;11.50
20103;BMP180;10210;52.284;9.892;2023-02-28T14:35:13;101998.00;;;11.60
20103;BMP180;10210;52.284;9.892;2023-02-28T14:37:42;101993.00;;;11.70
20103;BMP180;10210;52.284;9.892;2023-02-28T14:40:21;101988.00;;;11.70
20103;BMP180;10210;52.284;9.892;2023-02-28T14:43:02;101991.00;;;11.70
20103;BMP180;10210;52.284;9.892;2023-02-28T14:45:34;101988.00;;;11.70
20103;BMP180;10210;52.284;9.892;2023-02-28T14:48:09;101986.00;;;11.60
20103;BMP180;10210;52.284;9.892;2023-02-28T14:50:37;101980.00;;;11.60
20103;BMP180;10210;52.284;9.892;2023-02-28T14:53:09;101991.00;;;11.70
20103;BMP180;10210;52.284;9.892;2023-02-28T14:55:46;101991.00;;;11.70
20103;BMP180;10210;52.284;9.892;2023-02-28T14:58:31;101984.00;;;11.70
20103;BMP180;10210;52.284;9.892;2023-02-28T15:01:02;101993.00;;;11.70
20103;BMP180;10210;52.284;9.892;2023-02-28T15:03:32;101988.00;;;11.70
20103;BMP180;10210;52.284;9.892;2023-02-28T15:06:16;101978.00;;;11.70
20103;BMP180;10210;52.284;9.892;2023-02-28T15:08:46;101975.00;;;11.80
20103;BMP180;10210;52.284;9.892;2023-02-28T15:11:17;101984.00;;;11.80
20103;BMP180;10210;52.284;9.892;2023-02-28T15:13:53;101982.00;;;11.80
20103;BMP180;10210;52.284;9.892;2023-02-28T15:16:33;101980.00;;;11.70
20103;BMP180;10210;52.284;9.892;2023-02-28T15:19:21;101979.00;;;11.60
20103;BMP180;10210;52.284;9.892;2023-02-28T15:21:53;101980.00;;;11.60
20103;BMP180;10210;52.284;9.892;2023-02-28T15:27:29;101983.00;;;11.40
20103;BMP180;10210;52.284;9.892;2023-02-28T15:30:05;101978.00;;;11.40
20103;BMP180;10210;52.284;9.892;2023-02-28T15:32:35;101979.00;;;11.40
20103;BMP180;10210;52.284;9.892;2023-02-28T15:35:37;101984.00;;;11.40
20103;BMP180;10210;52.284;9.892;2023-02-28T15:38:25;101978.00;;;11.50
20103;BMP180;10210;52.284;9.892;2023-02-28T15:40:57;101969.00;;;11.50
20103;BMP180;10210;52.284;9.892;2023-02-28T15:43:27;101966.00;;;11.60
20103;BMP180;10210;52.284;9.892;2023-02-28T15:46:01;101968.00;;;11.60
20103;BMP180;10210;52.284;9.892;2023-02-28T15:48:35;101971.00;;;11.60
20103;BMP180;10210;52.284;9.892;2023-02-28T15:51:45;101967.00;;;11.50
20103;BMP180;10210;52.284;9.892;2023-02-28T15:54:28;101976.00;;;11.50
20103;BMP180;10210;52.284;9.892;2023-02-28T15:57:03;101973.00;;;11.60
20103;BMP180;10210;52.284;9.892;2023-02-28T15:59:32;101975.00;;;11.60
20103;BMP180;10210;52.284;9.892;2023-02-28T16:04:37;101974.00;;;11.50
20103;BMP180;10210;52.284;9.892;2023-02-28T16:07:05;101973.00;;;11.50
20103;BMP180;10210;52.284;9.892;2023-02-28T16:09:31;101978.00;;;11.40
20103;BMP180;10210;52.284;9.892;2023-02-28T16:12:02;101970.00;;;11.40
20103;BMP180;10210;52.284;9.892;2023-02-28T16:14:30;101973.00;;;11.40
20103;BMP180;10210;52.284;9.892;2023-02-28T16:17:06;101981.00;;;11.30
20103;BMP180;10210;52.284;9.892;2023-02-28T16:19:34;101978.00;;;11.30
20103;BMP180;10210;52.284;9.892;2023-02-28T16:22:00;101983.00;;;11.30
20103;BMP180;10210;52.284;9.892;2023-02-28T16:24:26;101976.00;;;11.20
20103;BMP180;10210;52.284;9.892;2023-02-28T16:26:54;101981.00;;;11.20
20103;BMP180;10210;52.284;9.892;2023-02-28T16:29:32;101985.00;;;11.10
20103;BMP180;10210;52.284;9.892;2023-02-28T16:32:01;101978.00;;;11.10
20103;BMP180;10210;52.284;9.892;2023-02-28T16:34:29;101993.00;;;11.00
20103;BMP180;10210;52.284;9.892;2023-02-28T16:36:54;101985.00;;;10.90